»·PEaware :: N416JK KBXK-KIFP

N416JK :: KBXK-KIFP

FLIGHT INFORMATION

Flight Status: Arrived
Operator: Privately registered:
United States
More flights under this callsign
Pilot: John K. (4202)
Aircraft: Unknown
(PIPA)
More flights by this aircraft type
Origin: KBXK Buckeye Mun
United States
Destination: KIFP Laughlin/Bullhead Intl
United States
More flights between these airports :: More routes between these airports
Route: +BXK V16 BLH V135 EED
File this flight plan on PilotEdge
Remarks:
Altitude:
(Current/Filed)
6,000ft
Speed:
(Current/Filed)
170kts
Departed: 13-Mar-19 09:53 AM
Arrived: 13-Mar-19 11:10 AM
Distance/Time
Traveled:
139nm/1:17
Distance/Time
To Go:
Arrived

Flight Plot

Page will automatically refresh every two minutes.

Flight plan parsing failed; only flown route is shown


Map Options




Map Legend


Flown Route
Filed Route
Departure Airport
Arrival Airport
Navaid (VOR, NDB)
Fix

Horizontal Profiles

Position Reports

Time Latitude Longitude Heading Altitude Ground
Speed
13-Mar-19 09:44 33.419958 -112.684063 358 1036ft 0kts
13-Mar-19 09:45 33.419958 -112.684063 358 1036ft 0kts
13-Mar-19 09:46 33.419958 -112.684063 358 1036ft 0kts
13-Mar-19 09:47 33.419958 -112.684063 358 1036ft 0kts
13-Mar-19 09:48 33.419958 -112.684063 358 1036ft 0kts
13-Mar-19 09:49 33.420809 -112.685211 208 1036ft 11kts
13-Mar-19 09:50 33.416749 -112.685345 186 1036ft 16kts
13-Mar-19 09:51 33.415571 -112.685467 252 1036ft 0kts
13-Mar-19 09:52 33.418340 -112.686838 338 1042ft 60kts
13-Mar-19 09:53 33.434359 -112.692257 289 1724ft 65kts
13-Mar-19 09:54 33.432635 -112.715262 279 2408ft 75kts
13-Mar-19 09:55 33.434577 -112.740038 263 3091ft 80kts
13-Mar-19 09:56 33.437656 -112.762599 285 4085ft 78kts
13-Mar-19 09:57 33.444674 -112.791306 286 5196ft 102kts
13-Mar-19 09:58 33.452827 -112.827008 277 5996ft 132kts
13-Mar-19 09:59 33.457126 -112.876854 277 5998ft 164kts
13-Mar-19 10:00 33.461711 -112.931467 277 5997ft 166kts
13-Mar-19 10:01 33.466038 -112.984372 278 5994ft 158kts
13-Mar-19 10:02 33.470222 -113.035888 278 5994ft 156kts
13-Mar-19 10:03 33.474376 -113.087609 278 5993ft 156kts
13-Mar-19 10:04 33.478678 -113.138769 278 6001ft 157kts
13-Mar-19 10:05 33.482972 -113.190279 277 6000ft 156kts
13-Mar-19 10:06 33.487110 -113.241354 277 6000ft 155kts
13-Mar-19 10:07 33.491103 -113.292015 278 5999ft 154kts
13-Mar-19 10:08 33.495122 -113.343043 278 5999ft 153kts
13-Mar-19 10:09 33.499023 -113.393160 278 5998ft 153kts
13-Mar-19 10:10 33.502892 -113.443327 278 5998ft 153kts
13-Mar-19 10:11 33.506725 -113.493385 278 5998ft 153kts
13-Mar-19 10:12 33.510579 -113.544057 278 5997ft 153kts
13-Mar-19 10:13 33.514371 -113.594229 278 5997ft 152kts
13-Mar-19 10:14 33.518128 -113.644223 278 5996ft 152kts
13-Mar-19 10:15 33.521852 -113.694085 278 5996ft 152kts
13-Mar-19 10:16 33.525563 -113.744045 278 5995ft 152kts
13-Mar-19 10:17 33.529271 -113.795024 280 6018ft 158kts
13-Mar-19 10:18 33.533105 -113.847593 281 5994ft 161kts
13-Mar-19 10:19 33.537014 -113.900637 281 5994ft 162kts
13-Mar-19 10:20 33.540799 -113.953758 281 5993ft 162kts
13-Mar-19 10:21 33.544318 -114.007030 281 5993ft 162kts
13-Mar-19 10:22 33.547985 -114.060787 281 5993ft 162kts
13-Mar-19 10:23 33.551719 -114.113713 281 6004ft 162kts
13-Mar-19 10:24 33.555746 -114.167167 281 6005ft 164kts
13-Mar-19 10:25 33.559666 -114.220981 281 6004ft 164kts
13-Mar-19 10:26 33.563558 -114.275571 281 6004ft 165kts
13-Mar-19 10:27 33.567380 -114.329963 281 6003ft 166kts
13-Mar-19 10:28 33.571167 -114.384534 281 6003ft 166kts
13-Mar-19 10:29 33.574794 -114.438949 280 6003ft 166kts
13-Mar-19 10:30 33.578359 -114.492857 280 6002ft 166kts
13-Mar-19 10:31 33.581682 -114.542908 280 6002ft 166kts
13-Mar-19 10:32 33.585383 -114.598231 280 6003ft 176kts
13-Mar-19 10:33 33.589235 -114.656246 280 6001ft 179kts
13-Mar-19 10:34 33.593091 -114.714630 280 6001ft 180kts
13-Mar-19 10:35 33.616806 -114.754018 357 6001ft 185kts
13-Mar-19 10:36 33.667013 -114.748149 358 6000ft 186kts
13-Mar-19 10:37 33.717156 -114.741382 358 6000ft 186kts
13-Mar-19 10:38 33.767279 -114.734116 359 6001ft 185kts
13-Mar-19 10:39 33.817745 -114.726517 359 6000ft 182kts
13-Mar-19 10:41 33.867138 -114.718934 359 5999ft 181kts
13-Mar-19 10:42 33.916352 -114.711291 359 5999ft 181kts
13-Mar-19 10:43 33.965582 -114.703606 359 5999ft 181kts
13-Mar-19 10:44 34.014819 -114.695896 359 5998ft 181kts
13-Mar-19 10:45 34.064642 -114.688077 359 5998ft 181kts
13-Mar-19 10:46 34.113849 -114.678739 5 5998ft 184kts
13-Mar-19 10:47 34.162732 -114.663426 5 5977ft 185kts
13-Mar-19 10:48 34.212031 -114.648017 5 5970ft 186kts
13-Mar-19 10:49 34.261367 -114.632663 6 5969ft 186kts
13-Mar-19 10:50 34.311773 -114.616946 7 5970ft 188kts
13-Mar-19 10:51 34.361635 -114.601321 7 5969ft 188kts
13-Mar-19 10:52 34.408798 -114.586639 3 6258ft 179kts
13-Mar-19 10:53 34.458044 -114.585124 355 6269ft 182kts
13-Mar-19 10:54 34.508852 -114.583539 355 6268ft 183kts
13-Mar-19 10:55 34.558909 -114.581819 356 6278ft 183kts
13-Mar-19 10:56 34.609080 -114.580040 356 6284ft 182kts
13-Mar-19 10:57 34.659035 -114.578186 356 6283ft 182kts
13-Mar-19 10:58 34.709073 -114.576308 356 6283ft 182kts
13-Mar-19 10:58 34.751308 -114.574713 356 6283ft 182kts
13-Mar-19 11:00 34.810074 -114.572514 357 6282ft 183kts
13-Mar-19 11:01 34.860333 -114.570592 357 6286ft 183kts
13-Mar-19 11:01 34.900008 -114.569075 357 5967ft 174kts
13-Mar-19 11:03 34.956309 -114.566926 357 5148ft 166kts
13-Mar-19 11:04 35.000002 -114.565270 357 4450ft 151kts
13-Mar-19 11:04 35.032551 -114.563995 357 3612ft 125kts
13-Mar-19 11:05 35.063467 -114.557377 0 2472ft 83kts
13-Mar-19 11:07 35.090947 -114.555892 356 1649ft 94kts
13-Mar-19 11:07 35.110160 -114.556452 351 1542ft 79kts
13-Mar-19 11:08 35.131243 -114.557976 352 1009ft 69kts
13-Mar-19 11:09 35.149311 -114.559131 354 704ft 25kts
13-Mar-19 11:10 35.151350 -114.558097 62 704ft 0kts
13-Mar-19 11:11 35.153659 -114.557948 355 704ft 32kts
13-Mar-19 11:12 35.156445 -114.555878 289 704ft 0kts

Navigation Log

Ident Type
Flight plan parsing failed, navigation log unavailable